sensor_id;sensor_type;location;lat;lon;timestamp;pressure;altitude;pressure_sealevel;temperature;humidity
59831;BME280;45711;50.108;13.712;2024-03-23T00:55:08;97142.34;;;10.94;100.00
59831;BME280;45711;50.108;13.712;2024-03-23T00:57:33;97147.50;;;10.91;100.00
59831;BME280;45711;50.108;13.712;2024-03-23T01:00:01;97147.00;;;10.89;100.00
59831;BME280;45711;50.108;13.712;2024-03-23T01:02:26;97147.00;;;10.89;100.00
59831;BME280;45711;50.108;13.712;2024-03-23T01:04:56;97138.16;;;10.88;100.00
59831;BME280;45711;50.108;13.712;2024-03-23T01:07:24;97134.31;;;10.94;100.00
59831;BME280;45711;50.108;13.712;2024-03-23T01:09:50;97137.28;;;10.93;100.00
59831;BME280;45711;50.108;13.712;2024-03-23T01:12:17;97126.66;;;10.88;100.00
59831;BME280;45711;50.108;13.712;2024-03-23T01:14:42;97132.00;;;10.88;100.00
59831;BME280;45711;50.108;13.712;2024-03-23T01:17:10;97129.84;;;10.90;100.00
59831;BME280;45711;50.108;13.712;2024-03-23T01:19:36;97128.56;;;10.87;100.00
59831;BME280;45711;50.108;13.712;2024-03-23T01:22:07;97122.09;;;10.88;100.00
59831;BME280;45711;50.108;13.712;2024-03-23T01:24:33;97106.34;;;10.87;100.00
59831;BME280;45711;50.108;13.712;2024-03-23T01:26:58;97106.03;;;10.88;100.00
59831;BME280;45711;50.108;13.712;2024-03-23T01:29:24;97101.50;;;10.89;100.00
59831;BME280;45711;50.108;13.712;2024-03-23T01:31:49;97105.44;;;10.91;100.00
59831;BME280;45711;50.108;13.712;2024-03-23T01:34:19;97101.38;;;10.94;100.00
59831;BME280;45711;50.108;13.712;2024-03-23T01:36:46;97092.06;;;10.91;100.00
59831;BME280;45711;50.108;13.712;2024-03-23T01:39:12;97091.78;;;10.93;100.00
59831;BME280;45711;50.108;13.712;2024-03-23T01:41:38;97087.91;;;10.85;100.00
59831;BME280;45711;50.108;13.712;2024-03-23T01:44:07;97082.56;;;10.85;100.00
59831;BME280;45711;50.108;13.712;2024-03-23T01:46:37;97085.44;;;10.89;100.00
59831;BME280;45711;50.108;13.712;2024-03-23T01:49:05;97080.38;;;10.87;100.00
59831;BME280;45711;50.108;13.712;2024-03-23T01:51:32;97070.84;;;10.95;100.00
59831;BME280;45711;50.108;13.712;2024-03-23T01:54:04;97060.81;;;11.00;100.00
59831;BME280;45711;50.108;13.712;2024-03-23T01:56:34;97059.31;;;11.08;100.00
59831;BME280;45711;50.108;13.712;2024-03-23T01:59:09;97048.88;;;11.20;100.00
59831;BME280;45711;50.108;13.712;2024-03-23T02:01:37;97043.13;;;11.13;100.00
59831;BME280;45711;50.108;13.712;2024-03-23T02:04:02;97036.91;;;11.04;100.00
59831;BME280;45711;50.108;13.712;2024-03-23T02:06:29;97034.16;;;10.95;100.00
59831;BME280;45711;50.108;13.712;2024-03-23T02:08:55;97028.22;;;10.98;100.00
59831;BME280;45711;50.108;13.712;2024-03-23T02:11:23;97028.50;;;10.97;100.00
59831;BME280;45711;50.108;13.712;2024-03-23T02:13:48;97021.00;;;10.85;100.00
59831;BME280;45711;50.108;13.712;2024-03-23T02:16:16;97028.25;;;10.85;100.00
59831;BME280;45711;50.108;13.712;2024-03-23T02:18:42;97025.56;;;10.85;100.00
59831;BME280;45711;50.108;13.712;2024-03-23T02:21:07;97022.50;;;10.77;100.00
59831;BME280;45711;50.108;13.712;2024-03-23T02:23:33;97023.09;;;10.74;100.00
59831;BME280;45711;50.108;13.712;2024-03-23T02:25:58;97020.31;;;10.79;100.00
59831;BME280;45711;50.108;13.712;2024-03-23T02:28:26;97012.91;;;10.76;100.00
59831;BME280;45711;50.108;13.712;2024-03-23T02:30:53;97009.25;;;10.72;100.00
59831;BME280;45711;50.108;13.712;2024-03-23T02:33:19;97004.09;;;10.76;100.00
59831;BME280;45711;50.108;13.712;2024-03-23T02:35:47;96997.94;;;10.75;100.00
59831;BME280;45711;50.108;13.712;2024-03-23T02:38:13;96997.63;;;10.77;100.00
59831;BME280;45711;50.108;13.712;2024-03-23T02:40:41;97000.19;;;10.82;100.00
59831;BME280;45711;50.108;13.712;2024-03-23T02:43:08;96993.16;;;10.86;100.00
59831;BME280;45711;50.108;13.712;2024-03-23T02:45:36;96989.38;;;10.87;100.00
59831;BME280;45711;50.108;13.712;2024-03-23T02:48:04;96987.19;;;10.89;100.00
59831;BME280;45711;50.108;13.712;2024-03-23T02:50:30;96982.03;;;10.93;100.00
59831;BME280;45711;50.108;13.712;2024-03-23T02:52:55;96965.78;;;10.89;100.00
59831;BME280;45711;50.108;13.712;2024-03-23T02:55:21;96962.06;;;10.76;100.00
59831;BME280;45711;50.108;13.712;2024-03-23T02:57:46;96956.81;;;10.71;100.00
59831;BME280;45711;50.108;13.712;2024-03-23T03:00:14;96950.91;;;10.61;100.00
59831;BME280;45711;50.108;13.712;2024-03-23T03:02:40;96944.38;;;10.53;100.00
59831;BME280;45711;50.108;13.712;2024-03-23T03:05:09;96943.88;;;10.51;100.00
59831;BME280;45711;50.108;13.712;2024-03-23T03:07:34;96939.13;;;10.48;100.00
59831;BME280;45711;50.108;13.712;2024-03-23T03:10:02;96938.16;;;10.44;100.00
59831;BME280;45711;50.108;13.712;2024-03-23T03:12:29;96947.75;;;10.59;100.00
59831;BME280;45711;50.108;13.712;2024-03-23T03:14:54;96943.25;;;10.68;100.00
59831;BME280;45711;50.108;13.712;2024-03-23T03:17:19;96929.69;;;10.64;100.00
59831;BME280;45711;50.108;13.712;2024-03-23T03:19:45;96933.53;;;10.72;100.00
59831;BME280;45711;50.108;13.712;2024-03-23T03:22:10;96930.34;;;10.70;100.00
59831;BME280;45711;50.108;13.712;2024-03-23T03:24:36;96919.19;;;10.68;100.00
59831;BME280;45711;50.108;13.712;2024-03-23T03:27:01;96923.84;;;10.62;100.00
59831;BME280;45711;50.108;13.712;2024-03-23T03:29:28;96922.06;;;10.57;100.00
59831;BME280;45711;50.108;13.712;2024-03-23T03:32:11;96922.88;;;10.58;100.00
59831;BME280;45711;50.108;13.712;2024-03-23T03:34:45;96919.47;;;10.66;100.00
59831;BME280;45711;50.108;13.712;2024-03-23T03:37:10;96925.63;;;10.67;100.00
59831;BME280;45711;50.108;13.712;2024-03-23T03:39:36;96920.88;;;10.64;100.00
59831;BME280;45711;50.108;13.712;2024-03-23T03:42:02;96907.63;;;10.59;100.00
59831;BME280;45711;50.108;13.712;2024-03-23T03:44:31;96910.38;;;10.53;100.00
59831;BME280;45711;50.108;13.712;2024-03-23T03:46:57;96914.84;;;10.58;100.00
59831;BME280;45711;50.108;13.712;2024-03-23T03:49:23;96907.00;;;10.62;100.00
59831;BME280;45711;50.108;13.712;2024-03-23T03:51:48;96907.13;;;10.56;100.00
59831;BME280;45711;50.108;13.712;2024-03-23T03:54:16;96904.47;;;10.43;100.00
59831;BME280;45711;50.108;13.712;2024-03-23T03:56:42;96902.19;;;10.50;100.00
59831;BME280;45711;50.108;13.712;2024-03-23T03:59:08;96908.03;;;10.52;100.00
59831;BME280;45711;50.108;13.712;2024-03-23T04:01:33;96900.91;;;10.47;100.00
59831;BME280;45711;50.108;13.712;2024-03-23T04:04:01;96890.75;;;10.08;100.00
59831;BME280;45711;50.108;13.712;2024-03-23T04:06:26;96897.19;;;10.21;100.00
59831;BME280;45711;50.108;13.712;2024-03-23T04:08:52;96886.91;;;10.28;100.00
59831;BME280;45711;50.108;13.712;2024-03-23T04:11:19;96891.03;;;10.20;100.00
59831;BME280;45711;50.108;13.712;2024-03-23T04:13:45;96884.72;;;10.16;100.00
59831;BME280;45711;50.108;13.712;2024-03-23T04:16:11;96893.13;;;10.10;100.00
59831;BME280;45711;50.108;13.712;2024-03-23T04:18:38;96874.41;;;10.10;100.00
59831;BME280;45711;50.108;13.712;2024-03-23T04:21:04;96870.31;;;9.76;100.00
59831;BME280;45711;50.108;13.712;2024-03-23T04:23:29;96859.09;;;10.01;100.00
59831;BME280;45711;50.108;13.712;2024-03-23T04:26:03;96851.16;;;10.10;100.00
59831;BME280;45711;50.108;13.712;2024-03-23T04:28:31;96866.72;;;9.94;100.00
59831;BME280;45711;50.108;13.712;2024-03-23T04:30:56;96862.66;;;10.11;100.00
59831;BME280;45711;50.108;13.712;2024-03-23T04:33:22;96862.47;;;10.07;100.00
59831;BME280;45711;50.108;13.712;2024-03-23T04:35:49;96866.47;;;10.18;100.00
59831;BME280;45711;50.108;13.712;2024-03-23T04:38:17;96845.69;;;10.29;100.00
59831;BME280;45711;50.108;13.712;2024-03-23T04:40:42;96848.19;;;10.25;100.00
59831;BME280;45711;50.108;13.712;2024-03-23T04:43:08;96846.47;;;10.29;100.00
59831;BME280;45711;50.108;13.712;2024-03-23T04:45:33;96849.16;;;10.16;100.00
59831;BME280;45711;50.108;13.712;2024-03-23T04:47:59;96854.03;;;10.27;100.00
59831;BME280;45711;50.108;13.712;2024-03-23T04:50:24;96854.56;;;10.38;100.00
59831;BME280;45711;50.108;13.712;2024-03-23T04:52:50;96850.59;;;10.36;100.00
59831;BME280;45711;50.108;13.712;2024-03-23T04:55:15;96861.22;;;10.27;100.00
59831;BME280;45711;50.108;13.712;2024-03-23T04:57:40;96838.94;;;10.31;100.00
59831;BME280;45711;50.108;13.712;2024-03-23T05:00:06;96823.41;;;10.34;100.00
59831;BME280;45711;50.108;13.712;2024-03-23T05:02:42;96823.03;;;10.49;100.00
59831;BME280;45711;50.108;13.712;2024-03-23T05:05:08;96815.63;;;10.46;100.00
59831;BME280;45711;50.108;13.712;2024-03-23T05:07:33;96823.34;;;10.47;100.00
59831;BME280;45711;50.108;13.712;2024-03-23T05:09:59;96811.72;;;10.52;100.00
59831;BME280;45711;50.108;13.712;2024-03-23T05:12:26;96809.38;;;10.50;100.00
59831;BME280;45711;50.108;13.712;2024-03-23T05:14:54;96801.22;;;10.55;100.00
59831;BME280;45711;50.108;13.712;2024-03-23T05:17:20;96810.53;;;10.58;100.00
59831;BME280;45711;50.108;13.712;2024-03-23T05:19:46;96800.22;;;10.51;100.00
59831;BME280;45711;50.108;13.712;2024-03-23T05:22:11;96807.88;;;10.44;100.00
59831;BME280;45711;50.108;13.712;2024-03-23T05:24:41;96810.34;;;10.54;100.00
59831;BME280;45711;50.108;13.712;2024-03-23T05:27:10;96813.91;;;10.50;100.00
59831;BME280;45711;50.108;13.712;2024-03-23T05:29:35;96801.81;;;10.52;100.00
59831;BME280;45711;50.108;13.712;2024-03-23T05:32:01;96787.97;;;10.50;100.00
59831;BME280;45711;50.108;13.712;2024-03-23T05:34:26;96783.72;;;10.49;100.00
59831;BME280;45711;50.108;13.712;2024-03-23T05:36:55;96774.09;;;10.48;100.00
59831;BME280;45711;50.108;13.712;2024-03-23T05:39:21;96770.41;;;10.58;100.00
59831;BME280;45711;50.108;13.712;2024-03-23T05:41:48;96762.97;;;10.55;100.00
59831;BME280;45711;50.108;13.712;2024-03-23T05:44:13;96750.19;;;10.52;100.00
59831;BME280;45711;50.108;13.712;2024-03-23T05:46:40;96759.06;;;10.61;100.00
59831;BME280;45711;50.108;13.712;2024-03-23T05:49:15;96740.00;;;10.54;100.00
59831;BME280;45711;50.108;13.712;2024-03-23T05:51:44;96740.97;;;10.58;100.00
59831;BME280;45711;50.108;13.712;2024-03-23T05:54:12;96743.31;;;10.60;100.00
59831;BME280;45711;50.108;13.712;2024-03-23T05:56:37;96737.97;;;10.60;100.00
59831;BME280;45711;50.108;13.712;2024-03-23T05:59:03;96734.16;;;10.52;100.00
59831;BME280;45711;50.108;13.712;2024-03-23T06:01:28;96750.06;;;10.57;100.00
59831;BME280;45711;50.108;13.712;2024-03-23T06:03:54;96739.50;;;10.52;100.00
59831;BME280;45711;50.108;13.712;2024-03-23T06:06:19;96713.13;;;10.59;100.00
59831;BME280;45711;50.108;13.712;2024-03-23T06:08:45;96709.19;;;10.65;100.00
59831;BME280;45711;50.108;13.712;2024-03-23T06:11:13;96708.41;;;10.65;100.00
59831;BME280;45711;50.108;13.712;2024-03-23T06:13:38;96708.78;;;10.72;100.00
59831;BME280;45711;50.108;13.712;2024-03-23T06:16:04;96705.63;;;10.78;100.00
59831;BME280;45711;50.108;13.712;2024-03-23T06:18:33;96705.84;;;11.56;100.00
59831;BME280;45711;50.108;13.712;2024-03-23T06:20:58;96687.41;;;11.64;100.00
59831;BME280;45711;50.108;13.712;2024-03-23T06:23:24;96689.09;;;11.25;100.00
59831;BME280;45711;50.108;13.712;2024-03-23T06:25:55;96684.78;;;11.90;100.00
59831;BME280;45711;50.108;13.712;2024-03-23T06:28:21;96679.75;;;12.52;100.00
59831;BME280;45711;50.108;13.712;2024-03-23T06:30:46;96672.19;;;12.54;100.00
59831;BME280;45711;50.108;13.712;2024-03-23T06:33:17;96660.16;;;11.88;100.00
59831;BME280;45711;50.108;13.712;2024-03-23T06:35:42;96650.53;;;11.87;100.00
59831;BME280;45711;50.108;13.712;2024-03-23T06:38:08;96650.38;;;12.56;100.00
59831;BME280;45711;50.108;13.712;2024-03-23T06:40:43;96644.06;;;11.96;100.00
59831;BME280;45711;50.108;13.712;2024-03-23T06:43:13;96649.59;;;12.00;100.00
59831;BME280;45711;50.108;13.712;2024-03-23T06:45:39;96638.53;;;12.01;100.00
59831;BME280;45711;50.108;13.712;2024-03-23T06:48:05;96637.03;;;12.39;100.00
59831;BME280;45711;50.108;13.712;2024-03-23T06:50:33;96626.63;;;12.37;100.00
59831;BME280;45711;50.108;13.712;2024-03-23T06:53:01;96611.63;;;13.04;100.00
59831;BME280;45711;50.108;13.712;2024-03-23T06:55:28;96604.34;;;12.75;100.00
59831;BME280;45711;50.108;13.712;2024-03-23T06:57:59;96605.22;;;12.88;100.00
59831;BME280;45711;50.108;13.712;2024-03-23T07:00:25;96613.91;;;13.44;100.00
59831;BME280;45711;50.108;13.712;2024-03-23T07:02:50;96611.81;;;12.31;100.00
59831;BME280;45711;50.108;13.712;2024-03-23T07:05:18;96621.06;;;11.52;100.00
59831;BME280;45711;50.108;13.712;2024-03-23T07:07:47;96616.31;;;11.83;100.00
59831;BME280;45711;50.108;13.712;2024-03-23T07:10:12;96609.22;;;11.62;100.00
59831;BME280;45711;50.108;13.712;2024-03-23T07:12:38;96615.22;;;11.24;100.00
59831;BME280;45711;50.108;13.712;2024-03-23T07:15:07;96607.03;;;11.64;100.00
59831;BME280;45711;50.108;13.712;2024-03-23T07:17:34;96599.81;;;12.96;100.00
59831;BME280;45711;50.108;13.712;2024-03-23T07:20:03;96582.75;;;13.97;100.00
59831;BME280;45711;50.108;13.712;2024-03-23T07:22:37;96568.75;;;13.70;100.00
59831;BME280;45711;50.108;13.712;2024-03-23T07:25:03;96571.31;;;13.33;100.00
59831;BME280;45711;50.108;13.712;2024-03-23T07:27:28;96583.06;;;12.99;100.00
59831;BME280;45711;50.108;13.712;2024-03-23T07:29:57;96579.97;;;14.51;100.00
59831;BME280;45711;50.108;13.712;2024-03-23T07:32:22;96570.28;;;14.87;98.53
59831;BME280;45711;50.108;13.712;2024-03-23T07:34:48;96565.88;;;13.75;100.00
59831;BME280;45711;50.108;13.712;2024-03-23T07:37:13;96569.50;;;13.17;100.00
59831;BME280;45711;50.108;13.712;2024-03-23T07:39:42;96567.59;;;13.17;100.00
59831;BME280;45711;50.108;13.712;2024-03-23T07:42:08;96564.50;;;14.02;100.00
59831;BME280;45711;50.108;13.712;2024-03-23T07:44:33;96543.59;;;15.34;94.24
59831;BME280;45711;50.108;13.712;2024-03-23T07:47:02;96549.00;;;15.22;94.28
59831;BME280;45711;50.108;13.712;2024-03-23T07:49:30;96547.22;;;13.58;100.00
59831;BME280;45711;50.108;13.712;2024-03-23T07:51:55;96550.03;;;13.28;100.00
59831;BME280;45711;50.108;13.712;2024-03-23T07:54:20;96545.00;;;13.60;100.00
59831;BME280;45711;50.108;13.712;2024-03-23T07:56:50;96544.91;;;14.88;98.45
59831;BME280;45711;50.108;13.712;2024-03-23T07:59:18;96545.53;;;13.53;100.00
59831;BME280;45711;50.108;13.712;2024-03-23T08:01:44;96543.13;;;14.43;100.00
59831;BME280;45711;50.108;13.712;2024-03-23T08:04:10;96547.91;;;12.63;100.00
59831;BME280;45711;50.108;13.712;2024-03-23T08:06:35;96543.69;;;12.82;100.00
59831;BME280;45711;50.108;13.712;2024-03-23T08:09:03;96537.94;;;13.35;100.00
59831;BME280;45711;50.108;13.712;2024-03-23T08:11:31;96536.63;;;13.20;100.00
59831;BME280;45711;50.108;13.712;2024-03-23T08:14:02;96534.44;;;12.42;100.00
59831;BME280;45711;50.108;13.712;2024-03-23T08:16:27;96533.84;;;12.66;100.00
59831;BME280;45711;50.108;13.712;2024-03-23T08:18:54;96546.59;;;12.01;100.00
59831;BME280;45711;50.108;13.712;2024-03-23T08:21:21;96551.97;;;11.75;100.00
59831;BME280;45711;50.108;13.712;2024-03-23T08:23:47;96549.63;;;11.82;100.00
59831;BME280;45711;50.108;13.712;2024-03-23T08:26:15;96535.94;;;11.66;100.00
59831;BME280;45711;50.108;13.712;2024-03-23T08:28:40;96540.34;;;11.62;100.00
59831;BME280;45711;50.108;13.712;2024-03-23T08:31:08;96542.59;;;11.34;100.00
59831;BME280;45711;50.108;13.712;2024-03-23T08:33:35;96545.59;;;11.32;100.00
59831;BME280;45711;50.108;13.712;2024-03-23T08:36:02;96552.84;;;11.32;100.00
59831;BME280;45711;50.108;13.712;2024-03-23T08:38:29;96550.78;;;11.46;100.00
59831;BME280;45711;50.108;13.712;2024-03-23T08:41:09;96549.22;;;11.19;100.00
59831;BME280;45711;50.108;13.712;2024-03-23T08:43:36;96542.13;;;11.32;100.00
59831;BME280;45711;50.108;13.712;2024-03-23T08:46:12;96564.16;;;11.03;100.00
59831;BME280;45711;50.108;13.712;2024-03-23T08:48:40;96581.97;;;10.99;100.00
59831;BME280;45711;50.108;13.712;2024-03-23T08:51:09;96575.97;;;10.93;100.00
59831;BME280;45711;50.108;13.712;2024-03-23T08:53:35;96566.53;;;11.04;100.00
59831;BME280;45711;50.108;13.712;2024-03-23T08:56:01;96575.66;;;11.03;100.00
59831;BME280;45711;50.108;13.712;2024-03-23T08:58:35;96581.19;;;10.98;100.00
59831;BME280;45711;50.108;13.712;2024-03-23T09:03:31;96590.44;;;10.92;100.00
59831;BME280;45711;50.108;13.712;2024-03-23T09:05:59;96591.09;;;10.89;100.00
59831;BME280;45711;50.108;13.712;2024-03-23T09:08:25;96600.66;;;10.81;100.00
59831;BME280;45711;50.108;13.712;2024-03-23T09:10:52;96606.97;;;10.86;100.00
59831;BME280;45711;50.108;13.712;2024-03-23T09:13:20;96606.81;;;10.91;100.00
59831;BME280;45711;50.108;13.712;2024-03-23T09:15:47;96599.09;;;10.80;100.00
59831;BME280;45711;50.108;13.712;2024-03-23T09:18:13;96596.91;;;10.91;100.00
59831;BME280;45711;50.108;13.712;2024-03-23T09:20:39;96593.28;;;11.04;100.00
59831;BME280;45711;50.108;13.712;2024-03-23T09:23:07;96585.09;;;10.92;100.00
59831;BME280;45711;50.108;13.712;2024-03-23T09:25:39;96598.31;;;10.89;100.00
59831;BME280;45711;50.108;13.712;2024-03-23T09:28:08;96595.50;;;10.94;100.00
59831;BME280;45711;50.108;13.712;2024-03-23T09:30:36;96599.75;;;10.95;100.00
59831;BME280;45711;50.108;13.712;2024-03-23T09:33:07;96598.00;;;10.90;100.00
59831;BME280;45711;50.108;13.712;2024-03-23T09:35:39;96600.50;;;10.87;100.00
59831;BME280;45711;50.108;13.712;2024-03-23T09:38:05;96604.63;;;10.93;100.00
59831;BME280;45711;50.108;13.712;2024-03-23T09:40:33;96607.16;;;10.98;100.00
59831;BME280;45711;50.108;13.712;2024-03-23T09:42:59;96607.16;;;11.06;100.00
59831;BME280;45711;50.108;13.712;2024-03-23T09:45:29;96598.84;;;11.25;100.00
59831;BME280;45711;50.108;13.712;2024-03-23T09:47:55;96601.19;;;11.27;100.00
59831;BME280;45711;50.108;13.712;2024-03-23T09:50:29;96611.56;;;11.02;100.00
59831;BME280;45711;50.108;13.712;2024-03-23T09:52:55;96617.09;;;11.06;100.00
59831;BME280;45711;50.108;13.712;2024-03-23T09:55:28;96624.94;;;10.94;100.00
59831;BME280;45711;50.108;13.712;2024-03-23T09:57:54;96622.06;;;10.81;100.00
59831;BME280;45711;50.108;13.712;2024-03-23T10:00:19;96630.72;;;10.78;100.00
59831;BME280;45711;50.108;13.712;2024-03-23T10:02:47;96630.72;;;10.87;100.00
59831;BME280;45711;50.108;13.712;2024-03-23T10:05:22;96639.25;;;10.89;100.00
59831;BME280;45711;50.108;13.712;2024-03-23T10:07:51;96641.16;;;10.97;100.00
59831;BME280;45711;50.108;13.712;2024-03-23T10:10:20;96648.50;;;10.83;100.00
59831;BME280;45711;50.108;13.712;2024-03-23T10:12:48;96650.75;;;10.90;100.00
59831;BME280;45711;50.108;13.712;2024-03-23T10:15:24;96652.91;;;10.79;100.00
59831;BME280;45711;50.108;13.712;2024-03-23T10:17:50;96667.25;;;10.83;100.00
59831;BME280;45711;50.108;13.712;2024-03-23T10:20:23;96670.25;;;10.81;100.00
59831;BME280;45711;50.108;13.712;2024-03-23T10:22:51;96664.44;;;10.97;100.00
59831;BME280;45711;50.108;13.712;2024-03-23T10:25:17;96677.50;;;10.90;100.00
59831;BME280;45711;50.108;13.712;2024-03-23T10:27:43;96679.19;;;10.77;100.00
59831;BME280;45711;50.108;13.712;2024-03-23T10:30:12;96683.47;;;10.87;100.00
59831;BME280;45711;50.108;13.712;2024-03-23T10:32:40;96678.09;;;10.78;100.00
59831;BME280;45711;50.108;13.712;2024-03-23T10:37:42;96678.47;;;10.94;100.00
59831;BME280;45711;50.108;13.712;2024-03-23T10:40:09;96684.44;;;10.91;100.00
59831;BME280;45711;50.108;13.712;2024-03-23T10:42:37;96686.25;;;11.30;100.00
59831;BME280;45711;50.108;13.712;2024-03-23T10:45:04;96701.34;;;11.17;100.00
59831;BME280;45711;50.108;13.712;2024-03-23T10:47:31;96677.22;;;11.00;100.00
59831;BME280;45711;50.108;13.712;2024-03-23T10:49:59;96664.19;;;11.16;100.00
59831;BME280;45711;50.108;13.712;2024-03-23T10:52:25;96664.44;;;10.97;100.00
59831;BME280;45711;50.108;13.712;2024-03-23T10:54:53;96673.78;;;11.08;100.00
59831;BME280;45711;50.108;13.712;2024-03-23T10:57:25;96674.28;;;11.27;100.00
59831;BME280;45711;50.108;13.712;2024-03-23T10:59:53;96650.47;;;11.17;100.00
59831;BME280;45711;50.108;13.712;2024-03-23T11:02:20;96660.88;;;11.19;100.00
59831;BME280;45711;50.108;13.712;2024-03-23T11:04:45;96690.19;;;11.15;100.00
59831;BME280;45711;50.108;13.712;2024-03-23T11:09:49;96685.84;;;10.97;100.00
59831;BME280;45711;50.108;13.712;2024-03-23T11:17:19;96725.53;;;10.95;100.00
59831;BME280;45711;50.108;13.712;2024-03-23T11:19:53;96767.22;;;10.87;100.00
59831;BME280;45711;50.108;13.712;2024-03-23T11:25:19;96775.06;;;10.83;100.00
59831;BME280;45711;50.108;13.712;2024-03-23T11:27:54;96775.06;;;10.83;100.00
59831;BME280;45711;50.108;13.712;2024-03-23T11:30:23;96782.28;;;10.74;100.00
59831;BME280;45711;50.108;13.712;2024-03-23T11:32:57;96779.00;;;10.77;100.00
59831;BME280;45711;50.108;13.712;2024-03-23T11:35:32;96780.00;;;10.90;100.00
59831;BME280;45711;50.108;13.712;2024-03-23T11:38:09;96783.88;;;10.75;100.00
59831;BME280;45711;50.108;13.712;2024-03-23T11:43:10;96822.97;;;10.85;100.00
59831;BME280;45711;50.108;13.712;2024-03-23T11:45:38;96831.28;;;10.83;100.00
59831;BME280;45711;50.108;13.712;2024-03-23T11:50:41;96834.81;;;10.93;100.00
59831;BME280;45711;50.108;13.712;2024-03-23T11:53:23;96835.94;;;11.00;100.00
59831;BME280;45711;50.108;13.712;2024-03-23T11:55:54;96838.38;;;11.11;100.00
59831;BME280;45711;50.108;13.712;2024-03-23T11:58:21;96849.31;;;11.00;100.00
59831;BME280;45711;50.108;13.712;2024-03-23T12:03:19;96846.59;;;10.92;100.00
59831;BME280;45711;50.108;13.712;2024-03-23T12:05:54;96840.97;;;10.93;100.00
59831;BME280;45711;50.108;13.712;2024-03-23T12:08:29;96835.09;;;10.91;100.00
59831;BME280;45711;50.108;13.712;2024-03-23T12:11:16;96860.16;;;10.95;100.00
59831;BME280;45711;50.108;13.712;2024-03-23T12:13:43;96855.81;;;10.77;100.00
59831;BME280;45711;50.108;13.712;2024-03-23T12:16:11;96861.03;;;10.82;100.00
59831;BME280;45711;50.108;13.712;2024-03-23T12:18:41;96871.81;;;10.68;100.00
59831;BME280;45711;50.108;13.712;2024-03-23T12:21:06;96856.00;;;10.80;100.00
59831;BME280;45711;50.108;13.712;2024-03-23T12:23:32;96857.38;;;10.78;100.00
59831;BME280;45711;50.108;13.712;2024-03-23T12:25:58;96871.25;;;10.80;100.00
59831;BME280;45711;50.108;13.712;2024-03-23T12:28:23;96845.88;;;10.77;100.00
59831;BME280;45711;50.108;13.712;2024-03-23T12:30:49;96863.22;;;10.80;100.00
59831;BME280;45711;50.108;13.712;2024-03-23T12:33:15;96867.03;;;10.88;100.00
59831;BME280;45711;50.108;13.712;2024-03-23T12:35:43;96883.81;;;10.79;100.00
59831;BME280;45711;50.108;13.712;2024-03-23T12:38:08;96882.38;;;10.73;100.00
59831;BME280;45711;50.108;13.712;2024-03-23T12:40:37;96887.78;;;10.82;100.00
59831;BME280;45711;50.108;13.712;2024-03-23T12:43:02;96914.38;;;10.78;100.00
59831;BME280;45711;50.108;13.712;2024-03-23T12:45:28;96927.41;;;10.71;100.00
59831;BME280;45711;50.108;13.712;2024-03-23T12:47:53;96938.88;;;10.72;100.00
59831;BME280;45711;50.108;13.712;2024-03-23T12:50:19;96953.66;;;10.69;100.00
59831;BME280;45711;50.108;13.712;2024-03-23T12:52:45;96962.06;;;10.76;100.00
59831;BME280;45711;50.108;13.712;2024-03-23T12:55:11;96958.09;;;10.74;100.00
59831;BME280;45711;50.108;13.712;2024-03-23T12:57:36;96974.19;;;10.60;99.85
59831;BME280;45711;50.108;13.712;2024-03-23T13:00:02;96984.19;;;10.68;100.00
59831;BME280;45711;50.108;13.712;2024-03-23T13:02:34;96957.97;;;10.43;94.25
59831;BME280;45711;50.108;13.712;2024-03-23T13:05:20;96964.69;;;10.54;98.27
59831;BME280;45711;50.108;13.712;2024-03-23T13:07:48;96988.31;;;10.74;100.00
59831;BME280;45711;50.108;13.712;2024-03-23T13:10:16;96990.13;;;10.65;100.00
59831;BME280;45711;50.108;13.712;2024-03-23T13:12:41;96994.75;;;10.73;100.00
59831;BME280;45711;50.108;13.712;2024-03-23T13:15:10;97003.50;;;10.65;100.00
59831;BME280;45711;50.108;13.712;2024-03-23T13:17:35;96999.72;;;10.66;100.00
59831;BME280;45711;50.108;13.712;2024-03-23T13:20:04;96999.19;;;10.42;95.10
59831;BME280;45711;50.108;13.712;2024-03-23T13:22:35;96997.09;;;10.52;94.24
59831;BME280;45711;50.108;13.712;2024-03-23T13:25:06;96978.41;;;10.25;87.36
59831;BME280;45711;50.108;13.712;2024-03-23T13:27:31;96967.56;;;10.44;97.32
59831;BME280;45711;50.108;13.712;2024-03-23T13:30:02;96978.34;;;10.52;92.98
59831;BME280;45711;50.108;13.712;2024-03-23T13:32:32;96991.34;;;10.59;100.00
59831;BME280;45711;50.108;13.712;2024-03-23T13:34:57;97010.75;;;10.51;100.00
59831;BME280;45711;50.108;13.712;2024-03-23T13:37:25;97015.63;;;10.63;100.00
59831;BME280;45711;50.108;13.712;2024-03-23T13:39:51;97031.47;;;10.59;100.00
59831;BME280;45711;50.108;13.712;2024-03-23T13:42:17;97030.00;;;10.39;100.00
59831;BME280;45711;50.108;13.712;2024-03-23T13:44:43;97015.03;;;10.52;100.00
59831;BME280;45711;50.108;13.712;2024-03-23T13:47:11;97020.38;;;10.52;100.00
59831;BME280;45711;50.108;13.712;2024-03-23T13:49:49;97019.28;;;10.53;96.11
59831;BME280;45711;50.108;13.712;2024-03-23T13:52:17;97014.47;;;10.27;95.85
59831;BME280;45711;50.108;13.712;2024-03-23T13:54:48;97021.38;;;10.42;98.87
59831;BME280;45711;50.108;13.712;2024-03-23T13:57:13;97016.91;;;10.51;100.00
59831;BME280;45711;50.108;13.712;2024-03-23T13:59:42;97037.22;;;10.52;98.36